Terminal Aerodrome Forecast
Issued by NWS Atlanta, GA

Home | Current Version | Previous Version | Text Only | Print | Product List | Glossary On
Versions: 1 2 3 4 5 6 7 8 9 10 11 12 13 14 15 16 17 18 19 20 21 22 23 24 25 26 27 28 29 30 31 32 33 34 35 36 37 38 39 40 41 42 43
000
FTUS42 KFFC 270156 AAA
TAFATL
TAF AMD
KATL 270156Z 2702/2806 33008KT P6SM SCT025 BKN250
     FM270300 33007KT P6SM SCT250
     FM271300 34008KT P6SM FEW010
     FM271500 34008KT P6SM SCT250=

USA.gov is the U.S. government's official web portal to all federal, state and local government web resources and services.